Aviation Digital Data Service (ADDS)

Output produced by METARs form (2144 UTC 16 August 2017)
found at http://www.aviationweather.gov/adds/metars/
 
KSAV 162053Z 31006KT 10SM SCT055CB BKN075 36/23 A2998 RMK AO2 LTG DSNT N AND E SLP151 CB E TCU N T03610233 56016
KSVN 162058Z AUTO 27007KT 10SM CLR 35/24 A2996 RMK AO2 LTG DSNT N RAB05E09DZB09E11RAB11E25DZB25E27RAB27E28RAB42 SLP148 P0000 60000 T03520242 57016
KLHW 162058Z AUTO 30006KT 10SM FEW055 36/22 A2996 RMK AO2 SLP148 T03550219 57017 $
KTBR 162135Z AUTO 10004KT 10SM SCT045 SCT070 35/21 A2998 RMK AO2 LTG DSNT N T03510211
KVDI 162135Z AUTO 25005KT 10SM CLR 35/23 A2999 RMK AO2
KJYL 162135Z AUTO 24003KT 10SM CLR 34/26 A2999 RMK AO2 LTG DSNT E AND W T03410261
KDBN 162135Z AUTO 30005KT 10SM CLR 34/21 A3001 RMK AO2
KJES 162138Z AUTO 23003KT 10SM SCT048 36/22 A2999 RMK AO2
KSSI 162053Z AUTO 16009KT 10SM CLR 32/26 A2999 RMK AO2 SLP158 T03170261 56012
KBQK 162135Z AUTO 00000KT 10SM CLR 35/21 A2999 RMK AO2
KAYS 162135Z AUTO 33004KT 10SM CLR 34/21 A3000 RMK AO2 T03370208
KNBC 162115Z 19005KT 10SM VCTS SCT040CB BKN100 33/26 A2998 RMK AO2 TSB09E10 T03330261
KHXD 162050Z 18012KT 10SM FEW010 SCT047 29/26 A3000 RMK TS IN VCNTY LTG DSNT SE-W